ěÝzenÝ letovÚho provozu ╚eskÚ republiky
Letiste: LKPJ Aktualizace: 17.05.2022 23:00:31  UTC
 METAR LKPJ 17.05. 23:00 ...
METAR LKPJ 172300Z AUTO 32007KT CAVOK 12/09 Q1022=